Time;durP1;ratioP1;P1;durP2;ratioP2;P2;SDS_P1;SDS_P2;PMS_P1;PMS_P2;Temp;Humidity;BMP_temperature;BMP_pressure;BME280_temperature;BME280_humidity;BME280_pressure;Samples;Min_cycle;Max_cycle;Signal;HPM_P1;HPM_P2
2021/10/21 00:01:59;;;;;;;11.90;6.28;;;;;;;11.71;56.03;99386.47;1806371;78;21242;-60
2021/10/21 00:04:25;;;;;;;10.85;5.78;;;;;;;11.70;56.15;99386.08;1803952;78;20882;-60
2021/10/21 00:06:53;;;;;;;7.35;4.80;;;;;;;11.67;56.21;99379.50;1802547;78;21995;-59
2021/10/21 00:09:19;;;;;;;8.93;5.12;;;;;;;11.66;56.25;99383.63;1809649;77;21301;-60
2021/10/21 00:11:45;;;;;;;7.67;4.35;;;;;;;11.63;56.34;99378.44;1804688;78;21503;-61
2021/10/21 00:14:12;;;;;;;9.40;4.42;;;;;;;11.60;56.42;99376.78;1803044;78;21479;-58
2021/10/21 00:16:39;;;;;;;5.95;4.70;;;;;;;11.59;56.47;99373.69;1802865;78;20988;-58
2021/10/21 00:19:06;;;;;;;12.37;6.80;;;;;;;11.58;56.52;99377.34;1805303;78;21825;-58
2021/10/21 00:21:32;;;;;;;9.08;6.35;;;;;;;11.57;56.59;99374.25;1802558;77;20948;-59
2021/10/21 00:23:59;;;;;;;6.75;4.70;;;;;;;11.56;56.67;99373.02;1801624;78;20933;-60
2021/10/21 00:26:25;;;;;;;10.28;4.67;;;;;;;11.54;56.74;99368.19;1802549;78;21064;-58
2021/10/21 00:28:53;;;;;;;11.43;5.12;;;;;;;11.52;56.85;99364.23;1797287;78;21085;-60
2021/10/21 00:31:20;;;;;;;9.48;6.28;;;;;;;11.50;56.89;99361.23;1801118;78;21188;-60
2021/10/21 00:33:46;;;;;;;10.00;7.78;;;;;;;11.49;56.95;99362.18;1802760;78;20949;-58
2021/10/21 00:36:14;;;;;;;15.72;11.70;;;;;;;11.46;57.09;99361.03;1802213;78;20997;-60
2021/10/21 00:38:40;;;;;;;16.35;13.90;;;;;;;11.45;57.15;99355.25;1803625;78;20917;-59
2021/10/21 00:41:06;;;;;;;22.87;15.98;;;;;;;11.43;57.23;99353.98;1801987;78;20921;-60
2021/10/21 00:43:37;;;;;;;21.90;13.68;;;;;;;11.41;57.31;99342.89;1803854;77;21067;-59
2021/10/21 00:46:06;;;;;;;16.00;13.25;;;;;;;11.38;57.38;99338.09;1804669;78;20937;-60
2021/10/21 00:48:33;;;;;;;15.30;13.08;;;;;;;11.38;57.46;99336.75;1799156;78;21072;-60
2021/10/21 00:51:00;;;;;;;13.83;12.35;;;;;;;11.36;57.50;99329.22;1796451;78;21517;-59
2021/10/21 00:53:29;;;;;;;13.40;11.73;;;;;;;11.35;57.56;99332.88;1802540;78;22473;-59
2021/10/21 00:55:55;;;;;;;14.85;10.48;;;;;;;11.33;57.63;99329.39;1807936;78;21237;-58
2021/10/21 00:58:21;;;;;;;11.88;9.70;;;;;;;11.33;57.67;99321.30;1797625;78;21179;-59
2021/10/21 01:00:48;;;;;;;12.55;10.53;;;;;;;11.31;57.72;99323.21;1797440;78;21037;-59
2021/10/21 01:03:14;;;;;;;9.28;8.30;;;;;;;11.31;57.78;99325.07;1801904;78;21404;-61
2021/10/21 01:05:41;;;;;;;12.73;7.80;;;;;;;11.29;57.85;99313.50;1804559;78;21446;-59
2021/10/21 01:08:07;;;;;;;11.80;6.62;;;;;;;11.27;57.88;99314.06;1799929;77;21055;-59
2021/10/21 01:10:34;;;;;;;8.55;6.40;;;;;;;11.24;57.94;99309.72;1772086;77;21131;-62
2021/10/21 01:13:00;;;;;;;9.35;6.72;;;;;;;11.24;58.02;99303.45;1787487;78;21111;-61
2021/10/21 01:15:28;;;;;;;7.90;5.30;;;;;;;11.22;58.11;99310.78;1801712;77;21041;-59
2021/10/21 01:17:55;;;;;;;7.78;4.80;;;;;;;11.20;58.20;99303.27;1803144;77;21143;-59
2021/10/21 01:20:22;;;;;;;11.05;6.33;;;;;;;11.17;58.31;99298.03;1804872;78;21538;-58
2021/10/21 01:22:48;;;;;;;10.98;5.40;;;;;;;11.14;58.37;99295.55;1801214;78;21450;-59
2021/10/21 01:25:15;;;;;;;6.62;4.95;;;;;;;11.11;58.46;99295.23;1799518;78;21071;-58
2021/10/21 01:27:46;;;;;;;6.22;4.17;;;;;;;11.11;58.55;99298.40;1800017;78;22186;-60
2021/10/21 01:30:26;;;;;;;8.53;5.08;;;;;;;11.09;58.62;99293.09;1799287;78;21014;-60
2021/10/21 01:32:55;;;;;;;8.80;4.53;;;;;;;11.07;58.64;99284.23;1799865;78;21830;-59
2021/10/21 01:35:22;;;;;;;8.68;7.37;;;;;;;11.06;58.70;99279.80;1802457;77;21598;-59
2021/10/21 01:37:48;;;;;;;12.13;7.55;;;;;;;11.05;58.77;99289.34;1798161;78;21330;-59
2021/10/21 01:40:16;;;;;;;13.55;7.50;;;;;;;11.03;58.80;99284.03;1801647;78;21064;-59
2021/10/21 01:42:43;;;;;;;10.08;8.63;;;;;;;11.02;58.89;99291.72;1806298;78;21546;-59
2021/10/21 01:45:20;;;;;;;9.28;8.20;;;;;;;11.00;58.94;99289.11;1801875;78;21056;-59
2021/10/21 01:47:48;;;;;;;12.65;10.18;;;;;;;10.99;58.97;99285.14;1801847;78;20921;-60
2021/10/21 01:50:14;;;;;;;11.40;9.38;;;;;;;10.97;59.04;99278.50;1806180;78;20914;-59
2021/10/21 01:52:43;;;;;;;10.70;8.68;;;;;;;10.96;59.12;99275.44;1805058;78;20992;-58
2021/10/21 01:55:09;;;;;;;12.33;9.75;;;;;;;10.95;59.14;99271.01;1808761;78;21302;-58
2021/10/21 01:57:36;;;;;;;12.47;9.05;;;;;;;10.95;59.22;99260.72;1799443;78;21491;-59
2021/10/21 02:00:12;;;;;;;8.55;7.67;;;;;;;10.94;59.26;99268.40;1781795;78;21601;-60
2021/10/21 02:02:39;;;;;;;11.43;8.20;;;;;;;10.93;59.27;99259.92;1801984;78;21358;-59
2021/10/21 02:05:06;;;;;;;11.55;7.72;;;;;;;10.91;59.30;99263.17;1798706;77;20890;-59
2021/10/21 02:07:32;;;;;;;8.50;6.58;;;;;;;10.90;59.38;99276.25;1803891;78;20945;-60
2021/10/21 02:09:59;;;;;;;10.25;7.25;;;;;;;10.89;59.41;99271.81;1798675;78;21119;-59
2021/10/21 02:12:25;;;;;;;9.78;6.95;;;;;;;10.87;59.43;99267.02;1798514;78;21076;-58
2021/10/21 02:14:52;;;;;;;7.50;6.33;;;;;;;10.85;59.51;99264.41;1804733;78;21041;-59
2021/10/21 02:17:22;;;;;;;11.85;6.50;;;;;;;10.84;59.60;99266.70;1801455;78;21092;-58
2021/10/21 02:19:46;;;;;;;5.92;5.15;;;;;;;10.81;59.64;99264.17;1799560;78;21099;-59
2021/10/21 02:22:13;;;;;;;8.25;6.30;;;;;;;10.80;59.72;99260.25;1798661;78;21290;-59
2021/10/21 02:24:39;;;;;;;9.65;7.15;;;;;;;10.78;59.73;99261.68;1797162;78;21277;-59
2021/10/21 02:27:05;;;;;;;12.53;6.50;;;;;;;10.76;59.80;99259.55;1795782;77;21506;-60
2021/10/21 02:29:31;;;;;;;12.70;7.05;;;;;;;10.74;59.87;99249.33;1793370;78;21577;-59
2021/10/21 02:31:58;;;;;;;8.35;6.40;;;;;;;10.73;59.96;99255.67;1798020;77;21455;-59
2021/10/21 02:34:24;;;;;;;6.47;5.78;;;;;;;10.71;60.02;99250.00;1795887;78;21147;-60
2021/10/21 02:36:52;;;;;;;8.35;6.30;;;;;;;10.68;60.10;99254.20;1803198;77;21064;-59
2021/10/21 02:39:18;;;;;;;8.73;6.53;;;;;;;10.66;60.18;99246.68;1795427;78;21096;-60
2021/10/21 02:41:45;;;;;;;13.45;9.80;;;;;;;10.62;60.27;99250.05;1801640;78;20938;-58
2021/10/21 02:44:11;;;;;;;21.35;17.27;;;;;;;10.58;60.40;99252.03;1800995;78;20902;-59
2021/10/21 02:46:38;;;;;;;22.65;16.85;;;;;;;10.55;60.49;99249.97;1800173;78;21055;-60
2021/10/21 02:49:04;;;;;;;24.35;18.73;;;;;;;10.53;60.63;99256.81;1797574;78;21000;-60
2021/10/21 02:51:31;;;;;;;18.42;15.55;;;;;;;10.51;60.71;99244.39;1801362;78;20870;-58
2021/10/21 02:53:57;;;;;;;23.30;13.95;;;;;;;10.48;60.82;99245.89;1802836;78;20976;-57
2021/10/21 02:56:23;;;;;;;16.02;12.88;;;;;;;10.45;60.91;99242.91;1797929;78;21407;-59
2021/10/21 02:58:49;;;;;;;13.30;11.70;;;;;;;10.43;61.02;99242.60;1797017;77;21384;-59
2021/10/21 03:01:16;;;;;;;14.15;8.58;;;;;;;10.43;61.11;99239.44;1760941;80;21880;-59
2021/10/21 03:03:42;;;;;;;10.30;6.85;;;;;;;10.43;61.18;99238.09;1764197;80;21006;-59
2021/10/21 03:06:08;;;;;;;12.47;8.13;;;;;;;10.43;61.25;99232.70;1742366;80;21030;-60
2021/10/21 03:08:34;;;;;;;11.15;7.28;;;;;;;10.44;61.34;99230.89;1764239;80;20932;-59
2021/10/21 03:11:02;;;;;;;8.33;7.40;;;;;;;10.43;61.39;99235.41;1734971;80;20897;-57
2021/10/21 03:13:30;;;;;;;13.10;8.35;;;;;;;10.44;61.45;99232.23;1736887;80;20921;-59
2021/10/21 03:15:56;;;;;;;9.80;7.80;;;;;;;10.43;61.50;99235.41;1744017;80;21067;-59
2021/10/21 03:18:22;;;;;;;15.13;7.70;;;;;;;10.41;61.55;99229.70;1761108;80;20870;-62
2021/10/21 03:20:49;;;;;;;8.65;7.20;;;;;;;10.40;61.64;99232.87;1768025;78;21726;-59
2021/10/21 03:23:19;;;;;;;9.30;7.47;;;;;;;10.37;61.73;99230.38;1733339;80;21690;-59
2021/10/21 03:25:44;;;;;;;9.63;7.83;;;;;;;10.34;61.79;99225.15;1730920;80;20869;-58
2021/10/21 03:28:10;;;;;;;15.53;6.60;;;;;;;10.30;61.91;99221.35;1749350;80;20926;-58
2021/10/21 03:30:36;;;;;;;9.33;8.30;;;;;;;10.26;62.01;99215.30;1772274;78;20925;-59
2021/10/21 03:33:03;;;;;;;8.23;7.40;;;;;;;10.23;62.13;99214.10;1736825;80;21044;-58
2021/10/21 03:35:29;;;;;;;9.58;7.05;;;;;;;10.20;62.21;99215.64;1731441;81;22810;-59
2021/10/21 03:37:55;;;;;;;11.35;7.80;;;;;;;10.18;62.31;99213.50;1731046;80;21059;-59
2021/10/21 03:40:21;;;;;;;11.03;7.45;;;;;;;10.14;62.41;99204.69;1749777;81;21090;-61
2021/10/21 03:42:48;;;;;;;8.10;6.65;;;;;;;10.12;62.53;99202.55;1743696;80;21119;-57
2021/10/21 03:45:15;;;;;;;7.80;7.05;;;;;;;10.10;62.60;99197.76;1757285;78;21114;-59
2021/10/21 03:47:41;;;;;;;8.63;6.62;;;;;;;10.10;62.72;99193.73;1759857;80;21080;-58
2021/10/21 03:50:08;;;;;;;10.63;6.67;;;;;;;10.12;62.80;99207.09;1742769;81;21158;-58
2021/10/21 03:52:36;;;;;;;8.03;7.00;;;;;;;10.12;62.84;99203.89;1736869;80;21095;-58
2021/10/21 03:55:02;;;;;;;12.98;8.18;;;;;;;10.12;62.89;99198.52;1738758;81;21079;-61
2021/10/21 03:57:29;;;;;;;14.65;11.15;;;;;;;10.13;62.91;99195.35;1762675;80;21075;-61
2021/10/21 03:59:55;;;;;;;13.38;11.22;;;;;;;10.13;62.90;99185.94;1763239;80;21510;-59
2021/10/21 04:02:21;;;;;;;15.60;12.68;;;;;;;10.11;62.92;99182.50;1746405;80;21462;-58
2021/10/21 04:04:48;;;;;;;15.05;11.80;;;;;;;10.09;62.95;99183.05;1756952;80;21672;-58
2021/10/21 04:07:14;;;;;;;12.88;11.30;;;;;;;10.06;63.03;99178.70;1740259;81;21450;-58
2021/10/21 04:09:40;;;;;;;16.50;12.10;;;;;;;10.04;63.09;99179.72;1760091;80;22431;-60
2021/10/21 04:12:08;;;;;;;15.32;11.10;;;;;;;10.02;63.13;99177.63;1737550;80;21051;-58
2021/10/21 04:14:35;;;;;;;12.25;9.60;;;;;;;10.01;63.22;99175.88;1739976;80;21575;-59
2021/10/21 04:17:02;;;;;;;11.63;10.03;;;;;;;9.96;63.32;99172.08;1766761;80;21071;-59
2021/10/21 04:19:29;;;;;;;17.57;9.28;;;;;;;9.94;63.37;99162.39;1764366;80;20964;-58
2021/10/21 04:21:56;;;;;;;12.90;8.25;;;;;;;9.92;63.48;99157.56;1734923;80;20917;-58
2021/10/21 04:24:22;;;;;;;8.85;7.80;;;;;;;9.91;63.57;99158.04;1731035;81;21077;-58
2021/10/21 04:26:48;;;;;;;13.68;7.90;;;;;;;9.91;63.64;99151.79;1747936;80;20956;-60
2021/10/21 04:29:14;;;;;;;12.43;9.08;;;;;;;9.90;63.70;99157.64;1735286;80;21086;-60
2021/10/21 04:31:41;;;;;;;15.95;11.30;;;;;;;9.90;63.75;99163.49;1730344;81;21059;-58
2021/10/21 04:34:07;;;;;;;17.73;13.13;;;;;;;9.89;63.78;99155.91;1747566;80;21349;-59
2021/10/21 04:36:33;;;;;;;16.10;11.78;;;;;;;9.90;63.80;99146.89;1759145;80;22209;-60
2021/10/21 04:39:00;;;;;;;13.55;11.20;;;;;;;9.89;63.83;99150.52;1730279;80;21099;-60
2021/10/21 04:41:26;;;;;;;12.18;10.60;;;;;;;9.88;63.87;99146.09;1756287;80;21051;-59
2021/10/21 04:43:52;;;;;;;14.18;10.93;;;;;;;9.86;63.90;99155.62;1737981;81;21143;-61
2021/10/21 04:46:19;;;;;;;10.78;9.73;;;;;;;9.86;63.92;99140.83;1758971;80;21051;-59
2021/10/21 04:48:45;;;;;;;14.78;10.38;;;;;;;9.85;63.98;99146.28;1757538;80;21120;-61
2021/10/21 04:51:11;;;;;;;10.10;8.25;;;;;;;9.82;64.01;99137.91;1743106;80;21071;-60
2021/10/21 04:53:38;;;;;;;10.72;8.40;;;;;;;9.83;64.05;99142.81;1774451;80;21039;-58
2021/10/21 04:56:04;;;;;;;14.90;7.92;;;;;;;9.84;64.10;99140.52;1731521;80;21127;-59
2021/10/21 04:58:32;;;;;;;14.43;8.40;;;;;;;9.84;64.15;99138.70;1729611;81;21066;-58
2021/10/21 05:00:58;;;;;;;13.62;8.98;;;;;;;9.86;64.14;99143.52;1734966;80;22592;-58
2021/10/21 05:03:25;;;;;;;14.28;9.03;;;;;;;9.88;64.12;99144.28;1762703;80;21532;-60
2021/10/21 05:05:52;;;;;;;11.95;9.40;;;;;;;9.91;64.12;99145.94;1764331;78;21245;-59
2021/10/21 05:08:18;;;;;;;10.40;8.48;;;;;;;9.92;64.09;99142.78;1765562;80;21442;-59
2021/10/21 05:10:45;;;;;;;9.85;8.08;;;;;;;9.95;64.06;99138.59;1767888;80;21683;-59
2021/10/21 05:13:12;;;;;;;13.15;9.70;;;;;;;9.95;64.01;99134.55;1766046;80;21107;-59
2021/10/21 05:15:40;;;;;;;15.00;8.03;;;;;;;9.98;63.97;99142.43;1769007;80;21556;-59
2021/10/21 05:18:08;;;;;;;10.68;8.90;;;;;;;9.98;63.95;99145.98;1769390;78;20922;-58
2021/10/21 05:20:34;;;;;;;11.50;7.78;;;;;;;10.00;63.91;99152.16;1768356;80;21462;-61
2021/10/21 05:23:02;;;;;;;10.38;8.28;;;;;;;10.03;63.87;99146.63;1763707;80;21762;-58
2021/10/21 05:25:30;;;;;;;14.47;8.23;;;;;;;10.07;63.77;99149.52;1766956;78;20964;-60
2021/10/21 05:27:56;;;;;;;19.15;10.95;;;;;;;10.11;63.72;99143.50;1767308;80;20909;-58
2021/10/21 05:30:23;;;;;;;17.80;11.18;;;;;;;10.17;63.68;99145.84;1766444;80;21128;-57
2021/10/21 05:32:51;;;;;;;17.82;12.68;;;;;;;10.22;63.63;99143.30;1769288;80;21116;-58
2021/10/21 05:35:17;;;;;;;14.58;10.80;;;;;;;10.29;63.48;99150.58;1764917;80;21035;-57
2021/10/21 05:37:43;;;;;;;18.52;10.63;;;;;;;10.33;63.36;99145.39;1767555;80;21486;-56
2021/10/21 05:40:10;;;;;;;15.35;10.55;;;;;;;10.37;63.26;99142.94;1764779;80;21620;-59
2021/10/21 05:42:36;;;;;;;10.20;8.33;;;;;;;10.41;63.12;99139.09;1767957;78;21538;-58
2021/10/21 05:45:04;;;;;;;12.35;9.08;;;;;;;10.44;63.09;99133.55;1770996;78;21562;-59
2021/10/21 05:47:31;;;;;;;13.83;10.43;;;;;;;10.49;62.92;99140.87;1770663;80;20912;-59
2021/10/21 05:49:58;;;;;;;20.90;12.58;;;;;;;10.51;62.82;99145.69;1767158;80;21274;-58
2021/10/21 05:52:26;;;;;;;14.30;11.12;;;;;;;10.54;62.73;99135.23;1771448;80;21486;-59
2021/10/21 05:56:06;;;;;;;15.13;11.33;;;;;;;10.61;62.61;99140.17;1768559;79;22631;-58
2021/10/21 05:58:33;;;;;;;12.25;10.98;;;;;;;10.58;62.53;99138.99;1732714;81;20970;-59
2021/10/21 06:00:59;;;;;;;14.47;10.48;;;;;;;10.63;62.42;99143.26;1733962;81;21017;-58
2021/10/21 06:03:26;;;;;;;14.58;9.38;;;;;;;10.64;62.35;99133.72;1738954;81;20981;-58
2021/10/21 06:05:53;;;;;;;12.70;10.30;;;;;;;10.68;62.31;99131.73;1733010;81;20943;-59
2021/10/21 06:08:19;;;;;;;13.55;10.03;;;;;;;10.71;62.31;99136.47;1725761;81;20894;-59
2021/10/21 06:10:46;;;;;;;11.70;9.80;;;;;;;10.76;62.20;99132.16;1725570;80;20915;-58
2021/10/21 06:13:12;;;;;;;17.30;9.30;;;;;;;10.79;62.13;99133.33;1715771;81;21166;-58
2021/10/21 06:15:40;;;;;;;16.55;8.18;;;;;;;10.84;62.04;99125.84;1734096;81;20958;-59
2021/10/21 06:18:11;;;;;;;11.53;7.58;;;;;;;10.91;61.92;99132.58;1731215;81;20934;-59
2021/10/21 06:20:36;;;;;;;11.15;7.95;;;;;;;10.98;61.71;99131.26;1733703;81;21369;-57
2021/10/21 06:23:02;;;;;;;10.85;8.23;;;;;;;11.05;61.49;99130.44;1729246;80;20934;-59
2021/10/21 06:25:29;;;;;;;7.35;6.80;;;;;;;11.10;61.31;99125.63;1737427;80;21790;-58
2021/10/21 06:27:56;;;;;;;9.30;8.08;;;;;;;11.14;61.10;99113.72;1731845;80;20898;-60
2021/10/21 06:30:22;;;;;;;11.15;9.70;;;;;;;11.17;61.00;99116.21;1734704;80;20949;-57
2021/10/21 06:32:50;;;;;;;14.15;10.98;;;;;;;11.19;60.86;99114.30;1733365;81;20973;-58
2021/10/21 06:35:16;;;;;;;18.32;11.40;;;;;;;11.22;60.76;99110.95;1728613;80;20922;-59
2021/10/21 06:37:49;;;;;;;13.43;11.12;;;;;;;11.25;60.72;99112.57;1725896;80;21092;-60
2021/10/21 06:40:16;;;;;;;18.85;13.62;;;;;;;11.29;60.66;99120.39;1730783;81;20906;-59
2021/10/21 06:42:42;;;;;;;12.28;10.80;;;;;;;11.33;60.57;99108.45;1731534;80;20930;-60
2021/10/21 06:45:11;;;;;;;16.67;12.03;;;;;;;11.40;60.52;99111.63;1728514;81;21040;-58
2021/10/21 06:47:42;;;;;;;12.55;10.40;;;;;;;11.49;60.48;99111.05;1726956;81;21041;-61
2021/10/21 06:50:09;;;;;;;15.25;10.50;;;;;;;11.58;60.37;99105.57;1726337;81;23299;-63
2021/10/21 06:52:39;;;;;;;13.78;10.70;;;;;;;11.67;60.13;99110.39;1730287;80;20914;-59
2021/10/21 06:55:06;;;;;;;10.85;8.98;;;;;;;11.76;59.87;99101.76;1722411;81;21287;-59
2021/10/21 06:57:32;;;;;;;13.40;9.03;;;;;;;11.85;59.65;99101.17;1709588;82;21012;-59
2021/10/21 06:59:59;;;;;;;18.82;16.40;;;;;;;11.94;59.45;99101.08;1716138;81;21168;-58
2021/10/21 07:02:25;;;;;;;19.70;17.75;;;;;;;12.02;59.18;99099.62;1707564;81;21140;-59
2021/10/21 07:04:52;;;;;;;13.50;12.30;;;;;;;12.12;58.89;99100.77;1707426;81;21094;-60
2021/10/21 07:07:18;;;;;;;10.40;8.60;;;;;;;12.23;58.70;99096.02;1710902;81;21030;-60
2021/10/21 07:09:44;;;;;;;10.05;7.72;;;;;;;12.32;58.39;99099.95;1714144;81;21112;-60
2021/10/21 07:12:10;;;;;;;7.40;6.80;;;;;;;12.41;58.10;99099.35;1671358;83;21068;-61
2021/10/21 07:14:37;;;;;;;7.72;6.97;;;;;;;12.50;57.96;99102.80;1659366;83;21097;-59
2021/10/21 07:17:03;;;;;;;10.03;7.00;;;;;;;12.60;57.68;99103.02;1647624;84;21131;-60
2021/10/21 07:19:29;;;;;;;8.65;7.42;;;;;;;12.70;57.44;99101.45;1661238;83;21166;-58
2021/10/21 07:21:55;;;;;;;17.17;12.23;;;;;;;12.78;57.27;99103.14;1643370;84;21066;-59
2021/10/21 07:24:22;;;;;;;20.62;15.55;;;;;;;12.86;57.20;99112.45;1660153;83;21627;-59
2021/10/21 07:26:48;;;;;;;21.10;18.07;;;;;;;12.95;56.85;99101.52;1676871;83;21171;-59
2021/10/21 07:29:15;;;;;;;18.00;14.75;;;;;;;13.02;56.58;99102.82;1660500;83;21059;-60
2021/10/21 07:31:41;;;;;;;15.72;13.93;;;;;;;13.07;56.40;99099.83;1673628;83;21058;-60
2021/10/21 07:34:09;;;;;;;17.90;13.43;;;;;;;13.12;56.38;99096.31;1658788;83;21538;-59
2021/10/21 07:36:35;;;;;;;14.33;11.18;;;;;;;13.16;56.32;99100.58;1675802;83;22185;-59
2021/10/21 07:39:02;;;;;;;13.65;12.30;;;;;;;13.19;56.21;99096.29;1671653;83;21208;-59
2021/10/21 07:41:28;;;;;;;15.10;9.93;;;;;;;13.22;56.06;99087.98;1674017;83;20963;-58
2021/10/21 07:43:55;;;;;;;13.20;10.68;;;;;;;13.23;55.97;99086.53;1678364;83;20974;-58
2021/10/21 07:46:22;;;;;;;10.95;9.85;;;;;;;13.25;55.76;99085.08;1662568;83;21086;-57
2021/10/21 07:48:50;;;;;;;18.10;11.53;;;;;;;13.25;55.67;99081.89;1679005;83;21569;-58
2021/10/21 07:51:17;;;;;;;18.73;11.83;;;;;;;13.24;55.70;99084.70;1661038;83;21079;-59
2021/10/21 07:53:43;;;;;;;11.88;9.65;;;;;;;13.23;55.80;99081.61;1647353;86;21016;-59
2021/10/21 07:56:10;;;;;;;13.38;9.75;;;;;;;13.24;55.69;99081.99;1645576;84;21122;-58
2021/10/21 07:58:37;;;;;;;11.73;9.55;;;;;;;13.27;55.87;99077.70;1647172;85;21618;-59
2021/10/21 08:01:04;;;;;;;14.60;10.30;;;;;;;13.30;55.85;99076.15;1649280;83;21103;-58
2021/10/21 08:03:30;;;;;;;12.80;9.25;;;;;;;13.34;55.92;99080.38;1654771;84;22884;-59
2021/10/21 08:05:57;;;;;;;14.55;10.82;;;;;;;13.41;55.89;99080.33;1648307;84;21549;-58
2021/10/21 08:08:24;;;;;;;18.98;9.73;;;;;;;13.47;55.78;99075.83;1644947;84;21746;-58
2021/10/21 08:10:51;;;;;;;10.60;9.60;;;;;;;13.53;55.90;99075.39;1655717;84;21510;-58
2021/10/21 08:13:17;;;;;;;11.83;9.45;;;;;;;13.59;55.70;99069.56;1654048;84;21401;-58
2021/10/21 08:15:43;;;;;;;11.15;8.90;;;;;;;13.66;55.71;99059.17;1653565;84;21218;-57
2021/10/21 08:18:13;;;;;;;12.15;9.18;;;;;;;13.73;55.33;99059.58;1650748;84;21059;-58
2021/10/21 08:20:41;;;;;;;13.18;9.75;;;;;;;13.79;55.14;99060.48;1654972;83;21535;-58
2021/10/21 08:23:08;;;;;;;15.00;10.45;;;;;;;13.84;55.09;99053.79;1653881;85;21012;-58
2021/10/21 08:25:34;;;;;;;16.32;9.48;;;;;;;13.91;54.99;99046.09;1651725;84;21448;-59
2021/10/21 08:28:00;;;;;;;13.43;9.45;;;;;;;13.98;54.89;99048.23;1660610;84;21603;-59
2021/10/21 08:30:27;;;;;;;13.32;10.95;;;;;;;14.08;54.92;99038.95;1711788;81;21039;-58
2021/10/21 08:32:57;;;;;;;11.48;9.78;;;;;;;14.21;54.69;99029.41;1715067;81;21088;-57
2021/10/21 08:35:28;;;;;;;11.22;9.83;;;;;;;14.33;54.53;99031.22;1711147;81;21066;-59
2021/10/21 08:37:54;;;;;;;12.20;7.62;;;;;;;14.48;54.04;99025.16;1714484;81;20927;-59
2021/10/21 08:40:20;;;;;;;21.23;10.43;;;;;;;14.70;52.78;99011.73;1716942;81;22054;-58
2021/10/21 08:42:48;;;;;;;11.65;8.85;;;;;;;14.70;52.78;99011.73;1706318;81;21918;-58
2021/10/21 08:45:15;;;;;;;12.37;8.23;;;;;;;14.73;52.39;99012.34;1709740;81;21622;-58
2021/10/21 08:47:44;;;;;;;8.83;6.97;;;;;;;14.78;52.38;99011.14;1711122;80;21066;-58
2021/10/21 08:50:12;;;;;;;7.50;6.87;;;;;;;14.85;52.05;99000.20;1712584;82;20907;-58
2021/10/21 08:52:38;;;;;;;7.58;6.85;;;;;;;14.85;52.05;99000.20;1715913;81;21707;-57
2021/10/21 08:55:05;;;;;;;8.73;6.92;;;;;;;14.88;51.54;98998.62;1714623;81;21018;-58
2021/10/21 08:57:33;;;;;;;8.80;8.00;;;;;;;14.93;51.38;98992.34;1722029;81;21048;-59
2021/10/21 08:59:59;;;;;;;7.87;7.12;;;;;;;14.96;51.62;98984.84;1712905;81;20946;-58
2021/10/21 09:02:44;;;;;;;8.53;7.70;;;;;;;15.05;51.17;98982.77;1712441;81;20946;-59
2021/10/21 09:05:17;;;;;;;7.53;6.83;;;;;;;15.12;50.89;98976.37;1706648;81;21074;-60
2021/10/21 09:07:57;;;;;;;7.50;6.80;;;;;;;15.18;50.40;98966.88;1721540;81;20971;-58
2021/10/21 09:10:24;;;;;;;10.40;7.65;;;;;;;15.23;50.27;98963.30;1720379;81;21534;-58
2021/10/21 09:12:50;;;;;;;7.28;6.55;;;;;;;15.28;50.32;98961.10;1711223;81;21560;-59
2021/10/21 09:15:19;;;;;;;10.05;6.50;;;;;;;15.33;50.64;98950.24;1716824;81;20919;-59
2021/10/21 09:17:46;;;;;;;9.53;8.60;;;;;;;15.41;50.56;98951.84;1715538;81;21386;-59
2021/10/21 09:20:40;;;;;;;9.50;6.97;;;;;;;15.47;50.17;98943.73;1713782;81;21631;-58
2021/10/21 09:23:10;;;;;;;11.75;9.83;;;;;;;15.52;49.96;98943.71;1715857;81;20959;-58
2021/10/21 09:25:37;;;;;;;17.10;8.98;;;;;;;15.59;49.91;98937.81;1723018;81;20990;-59
2021/10/21 09:28:25;;;;;;;15.00;10.58;;;;;;;15.65;49.96;98934.63;1713023;81;21013;-59
2021/10/21 09:30:57;;;;;;;10.40;9.45;;;;;;;15.71;49.81;98935.47;1711836;81;21905;-59
2021/10/21 09:33:25;;;;;;;9.40;8.50;;;;;;;15.76;49.67;98930.02;1714868;81;20899;-59
2021/10/21 09:36:00;;;;;;;12.07;8.33;;;;;;;15.82;49.75;98932.74;1715551;81;20940;-59
2021/10/21 09:38:29;;;;;;;12.80;9.88;;;;;;;15.89;49.56;98928.03;1713453;81;20901;-60
2021/10/21 09:41:01;;;;;;;14.87;10.70;;;;;;;15.95;49.43;98916.29;1710954;81;20927;-60
2021/10/21 09:43:33;;;;;;;12.78;9.20;;;;;;;15.99;49.29;98908.27;1721638;81;21469;-58
2021/10/21 09:45:59;;;;;;;9.43;8.43;;;;;;;16.05;49.23;98910.47;1712520;81;21536;-60
2021/10/21 09:48:25;;;;;;;8.68;7.87;;;;;;;16.11;48.96;98901.80;1708077;81;21128;-60
2021/10/21 09:50:52;;;;;;;12.43;8.80;;;;;;;16.15;48.88;98902.78;1709782;81;21137;-60
2021/10/21 09:53:22;;;;;;;12.20;8.63;;;;;;;16.20;48.83;98898.30;1715322;81;21074;-58
2021/10/21 09:56:02;;;;;;;12.43;7.58;;;;;;;16.25;48.18;98883.83;1709899;81;21136;-59
2021/10/21 09:58:37;;;;;;;10.65;7.58;;;;;;;16.31;47.91;98884.69;1711514;81;20978;-58
2021/10/21 10:01:12;;;;;;;8.98;7.78;;;;;;;16.38;47.90;98882.30;1716328;81;21038;-59
2021/10/21 10:03:42;;;;;;;8.43;7.50;;;;;;;16.47;48.14;98877.44;1715033;81;21674;-61
2021/10/21 10:06:11;;;;;;;7.33;6.62;;;;;;;16.55;47.52;98867.64;1710337;81;20880;-59
2021/10/21 10:08:38;;;;;;;7.70;6.90;;;;;;;16.63;47.49;98869.22;1715705;81;21774;-61
2021/10/21 10:11:19;;;;;;;14.53;7.47;;;;;;;16.72;47.06;98881.14;1714738;81;21050;-60
2021/10/21 10:13:49;;;;;;;7.42;6.70;;;;;;;16.78;46.54;98871.59;1708706;81;21450;-61
2021/10/21 10:16:12;;;;;;;8.83;5.33;;;;;;;16.81;46.45;98869.47;1715440;81;21444;-62
2021/10/21 10:18:42;;;;;;;8.18;6.70;;;;;;;16.85;46.55;98859.17;1715962;81;21437;-60
2021/10/21 10:21:13;;;;;;;9.25;7.37;;;;;;;16.90;46.54;98860.52;1718762;81;21725;-60
2021/10/21 10:24:02;;;;;;;10.55;6.92;;;;;;;16.97;46.19;98845.88;1714761;81;21074;-62
2021/10/21 10:26:45;;;;;;;7.12;5.87;;;;;;;17.03;46.08;98834.45;1704617;81;21499;-61
2021/10/21 10:29:19;;;;;;;5.42;4.60;;;;;;;17.09;45.77;98827.13;1712055;81;21131;-60
2021/10/21 10:31:54;;;;;;;9.45;6.58;;;;;;;17.15;45.66;98828.42;1714360;81;21070;-61
2021/10/21 10:34:40;;;;;;;6.70;5.43;;;;;;;17.20;45.75;98813.90;1707865;81;22582;-60
2021/10/21 10:37:22;;;;;;;6.75;5.22;;;;;;;17.27;45.56;98806.91;1722857;80;21567;-62
2021/10/21 10:39:52;;;;;;;9.95;5.83;;;;;;;17.34;45.38;98803.52;1717250;81;21011;-61
2021/10/21 10:42:34;;;;;;;6.22;5.72;;;;;;;17.42;44.76;98804.67;1712012;81;21720;-59
2021/10/21 10:45:05;;;;;;;14.87;6.10;;;;;;;17.46;44.65;98796.08;1697597;81;21723;-60
2021/10/21 10:47:48;;;;;;;10.43;6.42;;;;;;;17.52;44.54;98788.73;1716748;81;21029;-60
2021/10/21 10:50:30;;;;;;;6.62;5.33;;;;;;;17.60;44.36;98786.17;1713716;81;20887;-59
2021/10/21 10:53:08;;;;;;;5.53;4.80;;;;;;;17.68;44.41;98780.91;1711759;81;21018;-62
2021/10/21 10:55:50;;;;;;;5.58;5.03;;;;;;;17.76;44.09;98789.72;1719928;81;21024;-60
2021/10/21 10:58:18;;;;;;;3.95;3.65;;;;;;;17.81;43.73;98783.34;1711987;81;21692;-60
2021/10/21 11:00:52;;;;;;;4.10;3.72;;;;;;;17.85;43.23;98779.34;1714309;81;21127;-62
2021/10/21 11:03:38;;;;;;;4.20;3.87;;;;;;;17.87;43.26;98779.17;1713021;81;21089;-61
2021/10/21 11:06:09;;;;;;;5.47;4.62;;;;;;;17.89;43.21;98778.53;1712308;81;21074;-59
2021/10/21 11:09:08;;;;;;;6.87;4.75;;;;;;;17.89;43.26;98771.23;1712609;81;21153;-61
2021/10/21 11:11:52;;;;;;;8.08;4.12;;;;;;;17.88;42.98;98766.78;1708884;81;21072;-60
2021/10/21 11:14:39;;;;;;;9.25;3.98;;;;;;;17.82;42.80;98767.36;1710238;81;21177;-60
2021/10/21 11:17:09;;;;;;;5.85;3.83;;;;;;;17.74;43.09;98766.72;1716693;81;21503;-60
2021/10/21 11:19:47;;;;;;;3.80;3.52;;;;;;;17.68;43.35;98764.58;1723042;81;22423;-63
2021/10/21 11:22:35;;;;;;;6.83;4.33;;;;;;;17.64;43.45;98761.77;1710306;81;21626;-62
2021/10/21 11:25:07;;;;;;;5.03;4.28;;;;;;;17.57;43.42;98766.03;1715702;81;21019;-61
2021/10/21 11:27:41;;;;;;;7.00;5.67;;;;;;;17.54;43.68;98761.36;1715819;81;21992;-60
2021/10/21 11:30:15;;;;;;;6.15;5.50;;;;;;;17.50;43.58;98766.25;1710144;82;21081;-59
2021/10/21 11:32:43;;;;;;;13.10;8.50;;;;;;;17.43;43.59;98759.66;1716062;81;21114;-61
2021/10/21 11:35:17;;;;;;;8.18;6.40;;;;;;;17.34;43.63;98761.36;1714443;81;20899;-63